Time;durP1;ratioP1;P1;durP2;ratioP2;P2;SDS_P1;SDS_P2;PMS_P1;PMS_P2;Temp;Humidity;BMP_temperature;BMP_pressure;BME280_temperature;BME280_humidity;BME280_pressure;Samples;Min_cycle;Max_cycle;Signal;HPM_P1;HPM_P2
2023/07/12 00:02:12;;;;;;;1.80;1.30;;;21.20;99.90;;;;;;5072675;28;20040;-59
2023/07/12 00:04:38;;;;;;;3.33;1.50;;;21.40;99.90;;;;;;5068092;28;20047;-60
2023/07/12 00:07:03;;;;;;;4.78;1.48;;;21.20;99.90;;;;;;5076293;27;20036;-59
2023/07/12 00:09:29;;;;;;;5.85;1.42;;;20.90;99.90;;;;;;5079866;28;20029;-59
2023/07/12 00:11:54;;;;;;;2.67;1.40;;;21.30;99.90;;;;;;5084132;28;20137;-59
2023/07/12 00:14:20;;;;;;;3.42;1.50;;;20.90;99.90;;;;;;5069544;27;20047;-59
2023/07/12 00:16:45;;;;;;;4.13;1.60;;;20.70;99.90;;;;;;5074675;27;20052;-59
2023/07/12 00:19:15;;;;;;;3.00;1.30;;;20.90;99.90;;;;;;5067671;28;20037;-59
2023/07/12 00:21:40;;;;;;;2.38;1.40;;;21.10;99.90;;;;;;5079039;27;20036;-59
2023/07/12 00:24:06;;;;;;;5.07;1.42;;;20.80;99.90;;;;;;5065033;28;20076;-59
2023/07/12 00:26:35;;;;;;;3.05;1.48;;;20.40;99.90;;;;;;5065185;28;20112;-60
2023/07/12 00:29:03;;;;;;;4.15;1.10;;;20.40;99.90;;;;;;5074063;27;20031;-59
2023/07/12 00:31:29;;;;;;;2.75;1.40;;;20.30;99.90;;;;;;5067362;28;20039;-59
2023/07/12 00:33:55;;;;;;;2.65;1.40;;;20.40;99.90;;;;;;5080105;27;20037;-60
2023/07/12 00:36:24;;;;;;;3.03;1.40;;;20.70;99.90;;;;;;5064437;28;20435;-60
2023/07/12 00:38:51;;;;;;;3.08;1.38;;;21.00;99.90;;;;;;5076479;27;20046;-60
2023/07/12 00:41:46;;;;;;;2.10;1.33;;;21.10;99.90;;;;;;5069544;28;20122;-60
2023/07/12 00:44:18;;;;;;;3.95;1.48;;;21.00;99.90;;;;;;5072945;27;20094;-60
2023/07/12 00:46:53;;;;;;;2.70;1.48;;;21.20;99.90;;;;;;5074323;27;20059;-60
2023/07/12 00:49:19;;;;;;;3.92;1.40;;;21.40;99.90;;;;;;5061949;28;20539;-60
2023/07/12 00:51:44;;;;;;;3.05;1.40;;;21.10;99.90;;;;;;5080324;27;20060;-60
2023/07/12 00:54:13;;;;;;;2.88;1.40;;;21.10;99.90;;;;;;5066946;28;20086;-60
2023/07/12 00:56:38;;;;;;;2.03;1.30;;;20.90;99.90;;;;;;5069210;28;20106;-60
2023/07/12 00:59:12;;;;;;;2.70;1.27;;;21.00;99.90;;;;;;5076751;27;20048;-60
2023/07/12 01:01:38;;;;;;;2.08;1.23;;;20.90;99.90;;;;;;5073228;28;20057;-60
2023/07/12 01:04:05;;;;;;;2.63;1.27;;;21.00;99.90;;;;;;5073452;27;20036;-60
2023/07/12 01:06:31;;;;;;;3.80;1.30;;;21.00;99.90;;;;;;5068422;28;20364;-60
2023/07/12 01:09:08;;;;;;;1.95;1.20;;;20.90;99.90;;;;;;5069749;28;20029;-60
2023/07/12 01:11:34;;;;;;;1.38;1.20;;;20.80;99.90;;;;;;5080555;27;20063;-60
2023/07/12 01:14:00;;;;;;;2.75;1.50;;;20.80;99.90;;;;;;5076234;27;20121;-60
2023/07/12 01:16:26;;;;;;;1.40;1.10;;;20.70;99.90;;;;;;5072451;27;20131;-60
2023/07/12 01:18:51;;;;;;;2.25;1.15;;;20.80;99.90;;;;;;5077405;27;20059;-60
2023/07/12 01:21:24;;;;;;;2.50;1.38;;;20.80;99.90;;;;;;5079575;27;20043;-60
2023/07/12 01:23:49;;;;;;;2.53;1.37;;;20.90;99.90;;;;;;5080105;27;20111;-60
2023/07/12 01:26:33;;;;;;;3.22;1.33;;;21.10;99.90;;;;;;5074223;27;20369;-60
2023/07/12 01:29:00;;;;;;;;;;;21.30;99.90;;;;;;5071959;27;20024;-60
2023/07/12 01:31:27;;;;;;;2.50;1.30;;;21.10;99.90;;;;;;5078522;27;19912;-60
2023/07/12 01:33:53;;;;;;;4.07;1.40;;;21.00;99.90;;;;;;5073382;28;20492;-60
2023/07/12 01:36:20;;;;;;;3.55;1.40;;;21.20;99.90;;;;;;5076473;27;20044;-60
2023/07/12 01:38:47;;;;;;;4.78;1.33;;;21.00;99.90;;;;;;5084216;27;20040;-61
2023/07/12 01:41:13;;;;;;;3.53;1.40;;;21.20;99.90;;;;;;5095940;27;20471;-60
2023/07/12 01:43:39;;;;;;;2.72;1.23;;;21.10;99.90;;;;;;5079400;28;20028;-60
2023/07/12 01:46:05;;;;;;;4.78;1.50;;;21.10;99.90;;;;;;5080810;27;20032;-60
2023/07/12 01:48:31;;;;;;;3.05;1.40;;;21.20;99.90;;;;;;5076469;27;20036;-60
2023/07/12 01:50:57;;;;;;;3.05;1.58;;;21.10;99.90;;;;;;5087504;27;20028;-60
2023/07/12 01:53:23;;;;;;;7.25;2.00;;;21.00;99.90;;;;;;5076925;27;20483;-60
2023/07/12 01:55:48;;;;;;;4.25;1.80;;;21.10;99.90;;;;;;5077644;27;20090;-58
2023/07/12 01:58:14;;;;;;;3.50;1.67;;;21.00;99.90;;;;;;5093070;27;20047;-58
2023/07/12 02:00:39;;;;;;;3.20;1.77;;;21.00;99.90;;;;;;5094515;27;20410;-58
2023/07/12 02:03:05;;;;;;;3.70;1.65;;;21.00;99.90;;;;;;5077027;27;20032;-58
2023/07/12 02:05:31;;;;;;;3.45;1.95;;;21.10;99.90;;;;;;5084968;27;20024;-59
2023/07/12 02:07:58;;;;;;;3.13;1.88;;;21.10;99.90;;;;;;5086925;28;20506;-58
2023/07/12 02:10:24;;;;;;;7.57;2.00;;;21.10;99.90;;;;;;5076385;27;20142;-59
2023/07/12 02:12:50;;;;;;;3.80;1.90;;;21.10;99.90;;;;;;5069307;28;20028;-58
2023/07/12 02:15:16;;;;;;;3.22;1.90;;;21.00;99.90;;;;;;5070562;27;20076;-59
2023/07/12 02:17:42;;;;;;;3.15;1.90;;;20.90;99.90;;;;;;5070322;28;20044;-59
2023/07/12 02:20:09;;;;;;;3.65;1.98;;;20.60;99.90;;;;;;5075615;27;20043;-59
2023/07/12 02:22:37;;;;;;;4.22;2.00;;;20.60;99.90;;;;;;5086937;27;20036;-59
2023/07/12 02:25:04;;;;;;;6.20;2.28;;;20.50;99.90;;;;;;5085114;27;20047;-59
2023/07/12 02:27:30;;;;;;;5.43;2.30;;;20.50;99.90;;;;;;5070142;28;20036;-59
2023/07/12 02:29:56;;;;;;;5.47;2.38;;;20.20;99.90;;;;;;5075912;27;20789;-59
2023/07/12 02:32:22;;;;;;;9.05;2.95;;;19.90;99.90;;;;;;5078765;27;20064;-59
2023/07/12 02:34:51;;;;;;;6.82;2.42;;;19.90;99.90;;;;;;5075394;27;20111;-59
2023/07/12 02:37:17;;;;;;;7.35;3.00;;;20.10;99.90;;;;;;5078371;27;20140;-59
2023/07/12 02:39:43;;;;;;;7.68;2.58;;;20.30;99.90;;;;;;5084026;27;20111;-59
2023/07/12 02:42:09;;;;;;;8.07;3.25;;;20.50;99.90;;;;;;5067899;28;20054;-58
2023/07/12 02:44:38;;;;;;;6.82;2.97;;;20.20;99.90;;;;;;5076782;27;20036;-59
2023/07/12 02:47:04;;;;;;;7.60;3.30;;;19.80;99.90;;;;;;5076666;27;20033;-58
2023/07/12 02:49:30;;;;;;;7.38;3.00;;;19.60;99.90;;;;;;5073166;27;20434;-58
2023/07/12 02:51:55;;;;;;;7.78;2.58;;;19.20;99.90;;;;;;5070789;28;20084;-58
2023/07/12 02:54:21;;;;;;;7.60;2.60;;;18.90;99.90;;;;;;5066710;27;20036;-58
2023/07/12 02:56:46;;;;;;;8.10;2.92;;;18.90;99.90;;;;;;5067987;27;20127;-59
2023/07/12 02:59:12;;;;;;;7.75;2.80;;;19.10;99.90;;;;;;5070563;27;20040;-59
2023/07/12 03:01:38;;;;;;;10.45;2.65;;;19.20;99.90;;;;;;5078666;28;20066;-59
2023/07/12 03:04:04;;;;;;;6.22;3.08;;;19.20;99.90;;;;;;5081195;27;20028;-59
2023/07/12 03:06:29;;;;;;;7.72;3.15;;;19.30;99.90;;;;;;5074504;28;20033;-59
2023/07/12 03:08:55;;;;;;;8.68;2.80;;;19.50;99.90;;;;;;5069405;28;20400;-59
2023/07/12 03:11:20;;;;;;;5.88;2.78;;;19.50;99.90;;;;;;5067747;28;20033;-59
2023/07/12 03:13:46;;;;;;;5.95;2.63;;;19.50;99.90;;;;;;5067090;28;20106;-60
2023/07/12 03:16:11;;;;;;;7.45;2.72;;;19.40;99.90;;;;;;5073162;27;20036;-59
2023/07/12 03:18:37;;;;;;;7.20;2.70;;;19.40;99.90;;;;;;5079025;27;20526;-59
2023/07/12 03:21:05;;;;;;;7.15;2.95;;;19.10;99.90;;;;;;5091421;27;20169;-58
2023/07/12 03:23:32;;;;;;;6.38;2.95;;;18.80;99.90;;;;;;5072735;28;20382;-59
2023/07/12 03:25:58;;;;;;;5.88;2.88;;;19.00;99.90;;;;;;5070907;28;20126;-59
2023/07/12 03:28:24;;;;;;;5.95;2.90;;;19.30;99.90;;;;;;5078468;27;20265;-59
2023/07/12 03:31:02;;;;;;;6.18;2.88;;;19.10;99.90;;;;;;5072865;28;20025;-59
2023/07/12 03:33:28;;;;;;;9.20;2.92;;;18.80;99.90;;;;;;5067138;27;20032;-60
2023/07/12 03:35:54;;;;;;;6.32;2.80;;;18.60;99.90;;;;;;5083632;27;20407;-60
2023/07/12 03:38:24;;;;;;;6.20;3.05;;;18.60;99.90;;;;;;5086814;27;20032;-60
2023/07/12 03:40:51;;;;;;;5.93;3.03;;;18.90;99.90;;;;;;5069316;28;20056;-59
2023/07/12 03:43:16;;;;;;;6.30;2.40;;;19.00;99.90;;;;;;5073760;27;20466;-59
2023/07/12 03:45:45;;;;;;;5.97;2.60;;;19.00;99.90;;;;;;5082904;27;20032;-59
2023/07/12 03:48:10;;;;;;;6.10;2.63;;;18.90;99.90;;;;;;5066407;28;20031;-60
2023/07/12 03:50:41;;;;;;;5.28;2.55;;;19.00;99.90;;;;;;5077519;27;20032;-60
2023/07/12 03:53:07;;;;;;;11.18;2.90;;;18.90;99.90;;;;;;5075512;27;20131;-60
2023/07/12 03:55:43;;;;;;;8.27;2.80;;;18.80;99.90;;;;;;5074639;28;20145;-60
2023/07/12 03:58:12;;;;;;;7.20;2.67;;;18.70;99.90;;;;;;5079992;27;20522;-60
2023/07/12 04:00:41;;;;;;;6.65;2.53;;;18.70;99.90;;;;;;5089846;27;20024;-60
2023/07/12 04:03:07;;;;;;;6.18;2.63;;;18.60;99.90;;;;;;5065418;28;20029;-60
2023/07/12 04:05:39;;;;;;;11.43;3.00;;;18.50;99.90;;;;;;5080273;27;20415;-60
2023/07/12 04:08:05;;;;;;;9.13;2.80;;;18.50;99.90;;;;;;5080543;27;20060;-61
2023/07/12 04:10:31;;;;;;;8.18;3.10;;;18.60;99.90;;;;;;5084307;27;20418;-60
2023/07/12 04:12:57;;;;;;;6.43;3.17;;;18.50;99.90;;;;;;5084164;28;20024;-60
2023/07/12 04:15:23;;;;;;;6.72;3.03;;;18.60;99.90;;;;;;5085497;27;20498;-60
2023/07/12 04:17:48;;;;;;;5.18;3.13;;;18.60;99.90;;;;;;5074457;28;20128;-60
2023/07/12 04:20:14;;;;;;;8.57;2.92;;;18.60;99.90;;;;;;5074985;27;20040;-60
2023/07/12 04:22:40;;;;;;;11.35;2.85;;;18.80;99.90;;;;;;5095303;28;20479;-60
2023/07/12 04:25:08;;;;;;;7.20;3.00;;;18.80;99.90;;;;;;5069972;28;20067;-60
2023/07/12 04:27:37;;;;;;;5.95;2.75;;;18.80;99.90;;;;;;5066340;28;20488;-59
2023/07/12 04:30:07;;;;;;;4.25;2.40;;;18.90;99.90;;;;;;5066157;27;20047;-60
2023/07/12 04:32:33;;;;;;;4.15;1.98;;;18.80;99.90;;;;;;5081512;27;20449;-60
2023/07/12 04:34:59;;;;;;;3.95;2.03;;;18.70;99.90;;;;;;5076114;27;20036;-60
2023/07/12 04:37:24;;;;;;;5.07;2.33;;;18.80;99.90;;;;;;5066604;27;20037;-60
2023/07/12 04:39:51;;;;;;;6.03;2.50;;;18.70;99.90;;;;;;5073323;27;20036;-60
2023/07/12 04:42:16;;;;;;;4.57;2.00;;;18.90;99.90;;;;;;5065967;28;20063;-60
2023/07/12 04:44:42;;;;;;;4.55;2.00;;;18.90;99.90;;;;;;5086412;27;20439;-61
2023/07/12 04:47:08;;;;;;;3.88;2.05;;;18.90;99.90;;;;;;5089430;27;20459;-61
2023/07/12 04:49:34;;;;;;;4.60;2.30;;;19.00;99.90;;;;;;5077273;27;20024;-60
2023/07/12 04:51:59;;;;;;;6.45;1.98;;;19.00;99.90;;;;;;5066248;28;20378;-60
2023/07/12 04:54:25;;;;;;;6.50;2.05;;;19.10;99.90;;;;;;5070427;28;20090;-60
2023/07/12 04:56:51;;;;;;;3.75;1.80;;;19.20;99.90;;;;;;5080880;28;20081;-60
2023/07/12 04:59:18;;;;;;;5.22;2.00;;;18.90;99.90;;;;;;5075711;27;20494;-60
2023/07/12 05:01:45;;;;;;;4.25;1.92;;;18.90;99.90;;;;;;5081685;27;20621;-60
2023/07/12 05:04:11;;;;;;;4.00;1.80;;;19.10;99.90;;;;;;5083637;27;20500;-61
2023/07/12 05:06:36;;;;;;;4.78;2.10;;;19.10;99.90;;;;;;5069940;28;20040;-60
2023/07/12 05:09:03;;;;;;;5.22;1.80;;;19.10;99.90;;;;;;5076838;27;20064;-60
2023/07/12 05:11:28;;;;;;;5.15;2.13;;;19.00;99.90;;;;;;5069038;28;20029;-60
2023/07/12 05:13:54;;;;;;;6.13;2.05;;;19.10;99.90;;;;;;5070905;28;20039;-60
2023/07/12 05:16:20;;;;;;;4.32;2.20;;;;;;;;;;5082151;27;20044;-60
2023/07/12 05:18:45;;;;;;;3.42;1.70;;;19.20;99.90;;;;;;5071902;28;20028;-60
2023/07/12 05:21:11;;;;;;;3.97;1.98;;;19.20;99.90;;;;;;5077807;27;20028;-60
2023/07/12 05:23:39;;;;;;;8.75;2.35;;;19.20;99.90;;;;;;5069156;28;20400;-60
2023/07/12 05:26:05;;;;;;;5.28;2.20;;;19.10;99.90;;;;;;5068877;28;20032;-60
2023/07/12 05:28:31;;;;;;;2.05;1.77;;;19.20;99.90;;;;;;5068308;28;20051;-60
2023/07/12 05:30:56;;;;;;;4.22;1.80;;;19.10;99.90;;;;;;5083771;27;20399;-60
2023/07/12 05:33:22;;;;;;;8.38;2.10;;;19.20;99.90;;;;;;5081912;27;20040;-60
2023/07/12 05:35:48;;;;;;;5.55;1.88;;;19.20;99.90;;;;;;5065918;28;20043;-60
2023/07/12 05:38:13;;;;;;;4.93;2.13;;;19.20;99.90;;;;;;5080848;27;20553;-60
2023/07/12 05:40:39;;;;;;;4.97;2.00;;;19.10;99.90;;;;;;5089956;28;20409;-60
2023/07/12 05:43:04;;;;;;;6.35;2.20;;;19.10;99.90;;;;;;5085628;27;20133;-60
2023/07/12 05:45:30;;;;;;;6.22;2.47;;;18.90;99.90;;;;;;5080977;28;20534;-60
2023/07/12 05:47:55;;;;;;;6.97;2.70;;;18.80;99.90;;;;;;5086806;27;20032;-60
2023/07/12 05:50:21;;;;;;;7.55;2.83;;;18.70;99.90;;;;;;5082795;27;20091;-60
2023/07/12 05:52:47;;;;;;;6.20;2.88;;;18.70;99.90;;;;;;5085990;27;20051;-60
2023/07/12 05:55:17;;;;;;;5.57;3.17;;;18.70;99.90;;;;;;5063672;27;20043;-59
2023/07/12 05:57:44;;;;;;;8.23;3.35;;;18.70;99.90;;;;;;5083814;27;20043;-59
2023/07/12 06:00:11;;;;;;;9.63;2.90;;;18.60;99.90;;;;;;5072226;28;20037;-62
2023/07/12 06:02:38;;;;;;;6.20;3.08;;;18.70;99.90;;;;;;5076864;27;20036;-60
2023/07/12 06:05:05;;;;;;;8.43;3.10;;;18.70;99.90;;;;;;5074488;27;20571;-59
2023/07/12 06:07:31;;;;;;;7.40;3.10;;;18.80;99.90;;;;;;5087040;27;20492;-60
2023/07/12 06:09:56;;;;;;;5.80;2.75;;;18.80;99.90;;;;;;5086897;27;20034;-60
2023/07/12 06:12:22;;;;;;;7.13;3.08;;;18.90;99.90;;;;;;5084295;27;20503;-59
2023/07/12 06:14:48;;;;;;;7.93;3.25;;;19.00;99.90;;;;;;5075566;27;20058;-60
2023/07/12 06:17:14;;;;;;;10.05;3.22;;;19.00;99.90;;;;;;5073126;27;20064;-60
2023/07/12 06:19:39;;;;;;;5.93;2.50;;;19.10;99.90;;;;;;5090545;27;20039;-60
2023/07/12 06:22:05;;;;;;;7.82;2.72;;;19.00;99.90;;;;;;5082877;27;20043;-59
2023/07/12 06:24:31;;;;;;;10.77;2.58;;;19.20;99.90;;;;;;5093875;27;20036;-59
2023/07/12 06:26:56;;;;;;;6.07;3.10;;;19.30;99.90;;;;;;5094324;27;20036;-58
2023/07/12 06:29:22;;;;;;;9.18;3.00;;;19.40;99.90;;;;;;5071439;27;20051;-59
2023/07/12 06:31:48;;;;;;;8.27;2.90;;;19.40;99.90;;;;;;5088975;27;20407;-59
2023/07/12 06:34:14;;;;;;;6.63;2.75;;;19.60;99.90;;;;;;5077513;27;20044;-60
2023/07/12 06:36:39;;;;;;;9.40;2.80;;;19.50;99.90;;;;;;5088708;27;20043;-59
2023/07/12 06:39:05;;;;;;;6.50;3.13;;;19.50;99.90;;;;;;5081356;28;20040;-59
2023/07/12 06:41:30;;;;;;;8.57;3.30;;;19.70;99.90;;;;;;5079938;27;20147;-59
2023/07/12 06:43:56;;;;;;;6.38;2.80;;;19.90;99.90;;;;;;5079630;27;20036;-59
2023/07/12 06:46:22;;;;;;;6.15;2.90;;;19.90;99.90;;;;;;5083064;27;20069;-59
2023/07/12 06:48:48;;;;;;;5.82;2.50;;;20.00;99.90;;;;;;5074893;28;20400;-59
2023/07/12 06:51:14;;;;;;;6.20;2.60;;;20.00;99.90;;;;;;5087525;27;20634;-59
2023/07/12 06:53:39;;;;;;;7.32;2.40;;;20.00;99.90;;;;;;5087778;27;20123;-59
2023/07/12 06:56:05;;;;;;;6.72;2.47;;;20.00;99.90;;;;;;5073307;27;20036;-59
2023/07/12 06:58:31;;;;;;;8.40;2.45;;;19.90;99.90;;;;;;5076256;27;20047;-59
2023/07/12 07:00:56;;;;;;;7.43;2.42;;;19.70;99.90;;;;;;5065539;27;20035;-59
2023/07/12 07:03:22;;;;;;;8.35;2.28;;;19.70;99.90;;;;;;5077455;27;20032;-59
2023/07/12 07:05:48;;;;;;;5.93;2.47;;;19.80;99.90;;;;;;5078192;27;20036;-59
2023/07/12 07:08:16;;;;;;;4.57;2.30;;;19.80;99.90;;;;;;5079791;27;20024;-59
2023/07/12 07:10:43;;;;;;;7.38;2.15;;;19.60;99.90;;;;;;5079374;28;20139;-59
2023/07/12 07:13:09;;;;;;;6.10;2.60;;;19.40;99.90;;;;;;5087688;27;20033;-59
2023/07/12 07:15:36;;;;;;;5.95;2.33;;;19.50;99.90;;;;;;5077364;27;20040;-59
2023/07/12 07:18:01;;;;;;;10.27;2.33;;;19.50;99.90;;;;;;5077698;27;20044;-59
2023/07/12 07:20:28;;;;;;;6.15;2.67;;;19.60;99.90;;;;;;5073571;27;20028;-57
2023/07/12 07:22:54;;;;;;;9.15;2.92;;;19.70;99.90;;;;;;5068352;27;20399;-57
2023/07/12 07:25:20;;;;;;;7.93;2.55;;;19.80;99.90;;;;;;5077955;27;20336;-56
2023/07/12 07:27:46;;;;;;;7.53;2.60;;;19.90;99.90;;;;;;5079800;27;20036;-57
2023/07/12 07:30:13;;;;;;;6.70;2.55;;;20.10;99.90;;;;;;5074204;27;20043;-56
2023/07/12 07:32:39;;;;;;;6.57;2.20;;;20.20;99.90;;;;;;5072706;28;20032;-58
2023/07/12 07:35:06;;;;;;;8.73;2.20;;;20.40;99.90;;;;;;5074987;27;20127;-60
2023/07/12 07:37:32;;;;;;;8.43;2.40;;;20.50;99.90;;;;;;5081590;27;20036;-58
2023/07/12 07:39:57;;;;;;;5.78;2.40;;;20.60;99.90;;;;;;5068484;28;20038;-58
2023/07/12 07:42:23;;;;;;;10.07;2.65;;;20.60;99.90;;;;;;5077430;27;20043;-58
2023/07/12 07:44:49;;;;;;;4.63;2.00;;;20.70;99.90;;;;;;5071640;28;20107;-59
2023/07/12 07:47:14;;;;;;;5.45;2.03;;;20.50;99.90;;;;;;5083740;27;20056;-59
2023/07/12 07:49:40;;;;;;;6.95;2.03;;;20.50;99.90;;;;;;5074648;27;20442;-59
2023/07/12 07:52:06;;;;;;;8.98;2.10;;;20.60;99.90;;;;;;5079455;27;20036;-59
2023/07/12 07:54:32;;;;;;;7.82;2.00;;;20.70;99.90;;;;;;5080918;27;20040;-59
2023/07/12 07:56:57;;;;;;;8.98;2.55;;;20.80;99.90;;;;;;5074361;28;20528;-59
2023/07/12 07:59:23;;;;;;;8.23;2.53;;;20.70;99.90;;;;;;5068576;28;20485;-59
2023/07/12 08:01:49;;;;;;;6.82;2.72;;;20.70;99.90;;;;;;5069828;27;20036;-59
2023/07/12 08:04:14;;;;;;;5.38;2.35;;;20.80;99.90;;;;;;5068944;28;20068;-59
2023/07/12 08:06:40;;;;;;;9.82;2.90;;;20.90;99.90;;;;;;5069763;28;20164;-59
2023/07/12 08:09:07;;;;;;;7.57;2.25;;;20.80;99.90;;;;;;5072835;27;20032;-59
2023/07/12 08:11:33;;;;;;;7.90;2.60;;;20.80;99.90;;;;;;5067814;28;20044;-59
2023/07/12 08:13:59;;;;;;;8.00;2.17;;;20.80;99.90;;;;;;5070185;28;20043;-59
2023/07/12 08:16:27;;;;;;;7.78;2.00;;;20.90;99.90;;;;;;5078380;27;20032;-60
2023/07/12 08:18:53;;;;;;;7.65;2.00;;;21.40;99.90;;;;;;5069060;28;20029;-59
2023/07/12 08:21:19;;;;;;;6.55;2.15;;;21.40;99.90;;;;;;5073683;27;20560;-61
2023/07/12 08:23:45;;;;;;;6.25;2.25;;;21.40;99.90;;;;;;5074675;28;20039;-59
2023/07/12 08:26:10;;;;;;;5.35;2.00;;;21.50;99.90;;;;;;5081463;27;20081;-59
2023/07/12 08:28:36;;;;;;;7.20;2.58;;;21.60;99.90;;;;;;5084394;27;20039;-60
2023/07/12 08:31:02;;;;;;;5.65;2.00;;;21.60;99.90;;;;;;5075498;27;20153;-59
2023/07/12 08:33:27;;;;;;;5.78;2.00;;;21.40;99.90;;;;;;5079209;28;20515;-58
2023/07/12 08:35:53;;;;;;;8.20;2.30;;;21.30;99.90;;;;;;5077554;27;20345;-59
2023/07/12 08:38:19;;;;;;;7.90;3.03;;;21.20;99.90;;;;;;5078087;27;20044;-58
2023/07/12 08:40:48;;;;;;;6.05;2.42;;;21.10;99.90;;;;;;5079105;27;20028;-59
2023/07/12 08:43:18;;;;;;;6.13;2.25;;;21.30;99.90;;;;;;5081329;27;20112;-59
2023/07/12 08:45:46;;;;;;;7.70;2.50;;;21.50;99.90;;;;;;5085124;27;20028;-59
2023/07/12 08:48:21;;;;;;;9.18;2.60;;;21.70;99.90;;;;;;5076691;27;20037;-59
2023/07/12 08:50:48;;;;;;;5.63;2.55;;;21.70;99.90;;;;;;5077007;28;20387;-59
2023/07/12 08:53:24;;;;;;;7.88;2.35;;;21.60;99.90;;;;;;5075732;28;21227;-58
2023/07/12 08:55:51;;;;;;;7.15;2.30;;;21.80;99.90;;;;;;5078343;27;20062;-57
2023/07/12 08:58:33;;;;;;;7.85;2.10;;;21.80;99.90;;;;;;5081493;27;20032;-58
2023/07/12 09:01:13;;;;;;;5.15;1.98;;;22.00;99.90;;;;;;5072475;28;20025;-58
2023/07/12 09:03:39;;;;;;;7.03;2.25;;;22.00;99.90;;;;;;5071165;27;20032;-57
2023/07/12 09:06:14;;;;;;;8.95;2.30;;;21.90;99.90;;;;;;5078944;27;20379;-59
2023/07/12 09:08:45;;;;;;;5.13;1.85;;;21.70;99.90;;;;;;5084934;27;20036;-59
2023/07/12 09:11:25;;;;;;;6.70;2.83;;;21.80;99.90;;;;;;5074182;27;20037;-59
2023/07/12 09:13:51;;;;;;;4.32;1.70;;;21.80;99.90;;;;;;5075233;27;20037;-59
2023/07/12 09:16:31;;;;;;;3.78;1.83;;;21.40;99.90;;;;;;5069585;28;20575;-59
2023/07/12 09:19:00;;;;;;;6.90;2.30;;;21.30;99.90;;;;;;5073297;27;20393;-59
2023/07/12 09:21:31;;;;;;;4.20;1.70;;;21.50;99.90;;;;;;5073730;28;20162;-59
2023/07/12 09:24:03;;;;;;;6.28;2.17;;;21.50;99.90;;;;;;5072973;28;20028;-59
2023/07/12 09:26:31;;;;;;;7.30;2.30;;;21.60;99.90;;;;;;5074330;28;20028;-59
2023/07/12 09:29:11;;;;;;;6.75;1.98;;;21.80;99.90;;;;;;5079838;27;20278;-59
2023/07/12 09:31:40;;;;;;;6.55;2.25;;;21.90;99.90;;;;;;5080853;27;20111;-59
2023/07/12 09:34:14;;;;;;;5.10;1.65;;;22.00;99.90;;;;;;5074389;27;20508;-59
2023/07/12 09:36:40;;;;;;;6.13;1.58;;;21.80;99.90;;;;;;5078556;28;20036;-59
2023/07/12 09:39:12;;;;;;;6.53;2.13;;;21.80;99.90;;;;;;5073875;28;20112;-59
2023/07/12 09:41:50;;;;;;;6.05;1.80;;;21.90;99.90;;;;;;5083400;27;20044;-59
2023/07/12 09:44:16;;;;;;;6.47;1.92;;;21.90;99.90;;;;;;5078127;27;20123;-60
2023/07/12 09:46:53;;;;;;;7.22;2.00;;;22.00;99.90;;;;;;5084294;28;20080;-59
2023/07/12 09:49:25;;;;;;;6.72;2.03;;;22.20;99.90;;;;;;5087118;27;20043;-59
2023/07/12 09:52:09;;;;;;;7.88;1.83;;;22.20;99.90;;;;;;5087237;27;20103;-59
2023/07/12 09:54:50;;;;;;;5.78;1.42;;;22.10;99.90;;;;;;5079053;27;20440;-59
2023/07/12 09:57:40;;;;;;;7.50;1.95;;;21.90;99.90;;;;;;5078328;27;20044;-59
2023/07/12 10:00:33;;;;;;;5.88;1.60;;;22.10;99.90;;;;;;5089338;27;20111;-59
2023/07/12 10:03:26;;;;;;;4.28;1.88;;;22.10;99.90;;;;;;5052086;27;20046;-61
2023/07/12 10:05:56;;;;;;;8.23;1.80;;;22.10;99.90;;;;;;5075494;28;20060;-61
2023/07/12 10:08:25;;;;;;;5.45;1.80;;;22.00;99.90;;;;;;5067825;27;20123;-59
2023/07/12 10:11:05;;;;;;;7.88;1.70;;;22.10;99.90;;;;;;5075220;27;20085;-59
2023/07/12 10:13:41;;;;;;;8.18;2.22;;;22.20;99.90;;;;;;5079177;27;20576;-59
2023/07/12 10:16:45;;;;;;;6.30;1.45;;;22.10;99.90;;;;;;5080217;27;20079;-59
2023/07/12 10:19:16;;;;;;;;;;;22.00;99.90;;;;;;5038021;28;20071;-59
2023/07/12 10:21:42;;;;;;;7.07;1.73;;;21.90;99.90;;;;;;5080227;27;19916;-59
2023/07/12 10:24:15;;;;;;;4.05;1.83;;;22.00;99.90;;;;;;5077558;27;20426;-59
2023/07/12 10:26:44;;;;;;;6.97;1.83;;;22.30;99.90;;;;;;5075317;27;20047;-59
2023/07/12 10:29:21;;;;;;;4.80;1.70;;;22.20;99.90;;;;;;5077674;27;20397;-59
2023/07/12 10:31:51;;;;;;;5.10;2.00;;;22.30;99.90;;;;;;5083875;27;20412;-60
2023/07/12 10:34:37;;;;;;;10.70;2.13;;;22.40;99.90;;;;;;5075691;27;20035;-59
2023/07/12 10:37:12;;;;;;;7.82;2.10;;;22.60;99.90;;;;;;5066396;28;20049;-59
2023/07/12 10:39:40;;;;;;;4.95;1.45;;;22.70;99.90;;;;;;5083534;28;20032;-59
2023/07/12 10:42:27;;;;;;;4.85;1.27;;;22.80;99.90;;;;;;5078088;27;20040;-59
2023/07/12 10:44:56;;;;;;;4.35;1.58;;;23.10;99.90;;;;;;5080022;27;20036;-60
2023/07/12 10:47:27;;;;;;;7.25;1.75;;;23.20;99.90;;;;;;5080563;27;20040;-60
2023/07/12 10:49:58;;;;;;;5.47;1.67;;;22.90;99.90;;;;;;5078320;28;20065;-60
2023/07/12 10:52:51;;;;;;;3.90;1.52;;;23.10;99.90;;;;;;5076535;27;20032;-60
2023/07/12 10:55:21;;;;;;;7.90;1.85;;;23.10;99.90;;;;;;5082786;27;20055;-59
2023/07/12 10:57:50;;;;;;;7.28;1.52;;;22.70;99.90;;;;;;5084212;27;20063;-59
2023/07/12 11:00:20;;;;;;;5.00;1.35;;;22.40;99.90;;;;;;5076771;27;20032;-59
2023/07/12 11:03:20;;;;;;;6.78;1.67;;;22.50;99.90;;;;;;5075643;27;20101;-59
2023/07/12 11:05:55;;;;;;;6.07;1.38;;;22.50;99.90;;;;;;5076754;28;20119;-60
2023/07/12 11:08:40;;;;;;;6.18;1.60;;;22.30;99.90;;;;;;5077300;27;20081;-59
2023/07/12 11:11:27;;;;;;;7.38;2.03;;;22.50;99.90;;;;;;5073043;28;20025;-59
2023/07/12 11:14:04;;;;;;;7.68;1.70;;;22.60;99.90;;;;;;5077940;27;20695;-59
2023/07/12 11:16:30;;;;;;;7.10;1.63;;;22.70;99.90;;;;;;5084829;27;20036;-59
2023/07/12 11:18:57;;;;;;;6.25;1.50;;;22.90;99.90;;;;;;5076007;27;20068;-59
2023/07/12 11:21:47;;;;;;;6.43;1.58;;;22.90;99.90;;;;;;5081083;28;20037;-59
2023/07/12 11:24:25;;;;;;;5.10;1.30;;;23.10;99.90;;;;;;5076665;28;20039;-60
2023/07/12 11:27:01;;;;;;;5.05;1.63;;;23.20;99.90;;;;;;5078965;28;20039;-59
2023/07/12 11:29:35;;;;;;;7.20;3.40;;;23.20;99.90;;;;;;5079617;27;20518;-59
2023/07/12 11:32:30;;;;;;;4.60;1.30;;;23.30;99.90;;;;;;5077439;28;20036;-59
2023/07/12 11:35:01;;;;;;;4.40;1.30;;;23.40;99.90;;;;;;5081610;27;20043;-59
2023/07/12 11:37:34;;;;;;;3.55;1.25;;;23.40;99.90;;;;;;5089389;27;20043;-59
2023/07/12 11:40:00;;;;;;;4.72;1.40;;;23.50;99.90;;;;;;5076736;28;20066;-59
2023/07/12 11:42:29;;;;;;;7.65;1.48;;;23.40;99.90;;;;;;5084283;27;20091;-58
2023/07/12 11:45:12;;;;;;;5.15;1.30;;;23.50;99.90;;;;;;5076169;28;20508;-59
2023/07/12 11:47:43;;;;;;;4.55;1.45;;;23.50;99.90;;;;;;5077410;28;20096;-59
2023/07/12 11:50:17;;;;;;;3.35;1.13;;;23.40;99.90;;;;;;5081669;27;20036;-59
2023/07/12 11:52:43;;;;;;;5.00;1.40;;;23.50;99.90;;;;;;5091326;27;20556;-59
2023/07/12 11:55:19;;;;;;;4.10;1.40;;;23.70;99.90;;;;;;5077349;27;20067;-59
2023/07/12 11:57:47;;;;;;;4.75;1.23;;;23.80;99.90;;;;;;5078485;28;20245;-59
2023/07/12 12:00:19;;;;;;;2.45;1.10;;;23.80;99.90;;;;;;5082333;27;20049;-59
2023/07/12 12:02:49;;;;;;;5.70;1.52;;;23.70;99.90;;;;;;5083285;27;20038;-59
2023/07/12 12:05:20;;;;;;;3.08;1.15;;;24.00;99.90;;;;;;5085730;27;20040;-60
2023/07/12 12:07:47;;;;;;;5.80;1.45;;;24.00;99.90;;;;;;5070201;27;21188;-60
2023/07/12 12:10:22;;;;;;;5.22;1.20;;;24.00;99.90;;;;;;5078081;27;20035;-59
2023/07/12 12:12:48;;;;;;;4.63;1.25;;;24.10;99.90;;;;;;5086567;27;20404;-60
2023/07/12 12:15:23;;;;;;;4.43;1.30;;;24.00;99.90;;;;;;5084523;27;20040;-58
2023/07/12 12:17:50;;;;;;;6.07;1.77;;;23.90;99.90;;;;;;5076279;28;20086;-60
2023/07/12 12:20:19;;;;;;;4.78;1.30;;;23.80;99.90;;;;;;5079058;27;20050;-59
2023/07/12 12:22:53;;;;;;;5.70;1.27;;;23.90;99.90;;;;;;5083721;27;20376;-59
2023/07/12 12:25:22;;;;;;;4.22;1.20;;;24.00;99.90;;;;;;5080044;28;20037;-60
2023/07/12 12:27:48;;;;;;;3.63;1.13;;;24.10;99.90;;;;;;5081037;27;20056;-59
2023/07/12 12:30:19;;;;;;;6.32;1.60;;;24.10;99.90;;;;;;5080022;27;20532;-60
2023/07/12 12:32:58;;;;;;;3.25;1.00;;;24.00;99.90;;;;;;5087770;27;20609;-60
2023/07/12 12:35:24;;;;;;;5.72;1.10;;;24.10;99.90;;;;;;5078222;27;20683;-59
2023/07/12 12:37:58;;;;;;;3.63;1.20;;;24.20;99.90;;;;;;5089003;27;20047;-59
2023/07/12 12:40:24;;;;;;;4.10;1.23;;;24.20;99.90;;;;;;5066580;27;20162;-59
2023/07/12 12:43:01;;;;;;;2.80;1.17;;;24.30;99.90;;;;;;5073652;27;20032;-60
2023/07/12 12:45:33;;;;;;;4.32;1.10;;;24.40;99.90;;;;;;5081514;27;20378;-60
2023/07/12 12:47:59;;;;;;;3.90;1.10;;;24.60;99.90;;;;;;5080177;27;20303;-59
2023/07/12 12:50:26;;;;;;;5.25;1.08;;;24.50;99.90;;;;;;5086534;27;20073;-60
2023/07/12 12:52:54;;;;;;;5.47;1.20;;;24.40;99.90;;;;;;5082127;27;20032;-59
2023/07/12 12:55:19;;;;;;;3.55;1.17;;;24.50;99.90;;;;;;5075337;27;20184;-60
2023/07/12 12:57:45;;;;;;;5.90;1.20;;;24.70;99.90;;;;;;5080491;27;20114;-59